sensor_id;sensor_type;location;lat;lon;timestamp;temperature;humidity
10883;DHT22;5494;51.796;10.952;2023-05-31T00:01:08;13.20;99.90
10883;DHT22;5494;51.796;10.952;2023-05-31T00:03:38;13.20;99.90
10883;DHT22;5494;51.796;10.952;2023-05-31T00:06:09;13.20;99.90
10883;DHT22;5494;51.796;10.952;2023-05-31T00:08:38;13.10;99.90
10883;DHT22;5494;51.796;10.952;2023-05-31T00:11:07;13.10;99.90
10883;DHT22;5494;51.796;10.952;2023-05-31T00:13:35;13.10;99.90
10883;DHT22;5494;51.796;10.952;2023-05-31T00:16:05;13.00;99.90
10883;DHT22;5494;51.796;10.952;2023-05-31T00:18:53;13.00;99.90
10883;DHT22;5494;51.796;10.952;2023-05-31T00:21:23;12.90;99.90
10883;DHT22;5494;51.796;10.952;2023-05-31T00:23:51;12.80;99.90
10883;DHT22;5494;51.796;10.952;2023-05-31T00:26:19;12.70;99.90
10883;DHT22;5494;51.796;10.952;2023-05-31T00:28:48;12.70;99.90
10883;DHT22;5494;51.796;10.952;2023-05-31T00:31:16;12.70;99.90
10883;DHT22;5494;51.796;10.952;2023-05-31T00:33:45;12.70;99.90
10883;DHT22;5494;51.796;10.952;2023-05-31T00:36:14;12.70;99.90
10883;DHT22;5494;51.796;10.952;2023-05-31T00:38:43;12.60;99.90
10883;DHT22;5494;51.796;10.952;2023-05-31T00:41:11;12.70;99.90
10883;DHT22;5494;51.796;10.952;2023-05-31T00:43:39;12.70;99.90
10883;DHT22;5494;51.796;10.952;2023-05-31T00:46:11;12.60;99.90
10883;DHT22;5494;51.796;10.952;2023-05-31T00:48:49;12.60;99.90
10883;DHT22;5494;51.796;10.952;2023-05-31T00:51:18;12.50;99.90
10883;DHT22;5494;51.796;10.952;2023-05-31T00:53:49;12.50;99.90
10883;DHT22;5494;51.796;10.952;2023-05-31T00:56:18;12.40;99.90
10883;DHT22;5494;51.796;10.952;2023-05-31T00:58:49;12.40;99.90
10883;DHT22;5494;51.796;10.952;2023-05-31T01:01:20;12.30;99.90
10883;DHT22;5494;51.796;10.952;2023-05-31T01:03:53;12.30;99.90
10883;DHT22;5494;51.796;10.952;2023-05-31T01:06:22;12.30;99.90
10883;DHT22;5494;51.796;10.952;2023-05-31T01:08:52;12.30;99.90
10883;DHT22;5494;51.796;10.952;2023-05-31T01:11:29;12.20;99.90
10883;DHT22;5494;51.796;10.952;2023-05-31T01:14:16;12.20;99.90
10883;DHT22;5494;51.796;10.952;2023-05-31T01:16:53;12.10;99.90
10883;DHT22;5494;51.796;10.952;2023-05-31T01:19:32;12.10;99.90
10883;DHT22;5494;51.796;10.952;2023-05-31T01:22:25;12.00;99.90
10883;DHT22;5494;51.796;10.952;2023-05-31T01:25:16;12.00;99.90
10883;DHT22;5494;51.796;10.952;2023-05-31T01:27:56;11.90;99.90
10883;DHT22;5494;51.796;10.952;2023-05-31T01:30:28;11.90;99.90
10883;DHT22;5494;51.796;10.952;2023-05-31T01:32:59;12.00;99.90
10883;DHT22;5494;51.796;10.952;2023-05-31T01:35:28;11.90;99.90
10883;DHT22;5494;51.796;10.952;2023-05-31T01:37:56;11.90;99.90
10883;DHT22;5494;51.796;10.952;2023-05-31T01:40:25;11.90;99.90
10883;DHT22;5494;51.796;10.952;2023-05-31T01:42:55;11.90;99.90
10883;DHT22;5494;51.796;10.952;2023-05-31T01:45:24;11.80;99.90
10883;DHT22;5494;51.796;10.952;2023-05-31T01:48:03;11.80;99.90
10883;DHT22;5494;51.796;10.952;2023-05-31T01:50:35;11.80;99.90
10883;DHT22;5494;51.796;10.952;2023-05-31T01:53:04;11.70;99.90
10883;DHT22;5494;51.796;10.952;2023-05-31T01:55:34;11.70;99.90
10883;DHT22;5494;51.796;10.952;2023-05-31T01:58:04;11.70;99.90
10883;DHT22;5494;51.796;10.952;2023-05-31T02:00:35;11.70;99.90
10883;DHT22;5494;51.796;10.952;2023-05-31T02:03:04;11.60;99.90
10883;DHT22;5494;51.796;10.952;2023-05-31T02:05:32;11.60;99.90
10883;DHT22;5494;51.796;10.952;2023-05-31T02:08:01;11.60;99.90
10883;DHT22;5494;51.796;10.952;2023-05-31T02:10:29;11.60;99.90
10883;DHT22;5494;51.796;10.952;2023-05-31T02:12:57;11.60;99.90
10883;DHT22;5494;51.796;10.952;2023-05-31T02:15:26;11.70;99.90
10883;DHT22;5494;51.796;10.952;2023-05-31T02:17:55;11.70;99.90
10883;DHT22;5494;51.796;10.952;2023-05-31T02:20:25;11.70;99.90
10883;DHT22;5494;51.796;10.952;2023-05-31T02:22:53;11.70;99.90
10883;DHT22;5494;51.796;10.952;2023-05-31T02:25:22;11.70;99.90
10883;DHT22;5494;51.796;10.952;2023-05-31T02:27:50;11.60;99.90
10883;DHT22;5494;51.796;10.952;2023-05-31T02:30:18;11.60;99.90
10883;DHT22;5494;51.796;10.952;2023-05-31T02:32:48;11.50;99.90
10883;DHT22;5494;51.796;10.952;2023-05-31T02:35:16;11.50;99.90
10883;DHT22;5494;51.796;10.952;2023-05-31T02:37:44;11.40;99.90
10883;DHT22;5494;51.796;10.952;2023-05-31T02:40:13;11.50;99.90
10883;DHT22;5494;51.796;10.952;2023-05-31T02:42:42;11.50;99.90
10883;DHT22;5494;51.796;10.952;2023-05-31T02:45:11;11.50;99.90
10883;DHT22;5494;51.796;10.952;2023-05-31T02:47:39;11.50;99.90
10883;DHT22;5494;51.796;10.952;2023-05-31T02:50:10;11.50;99.90
10883;DHT22;5494;51.796;10.952;2023-05-31T02:52:51;11.70;99.90
10883;DHT22;5494;51.796;10.952;2023-05-31T02:55:33;11.70;99.90
10883;DHT22;5494;51.796;10.952;2023-05-31T02:58:26;11.70;99.90
10883;DHT22;5494;51.796;10.952;2023-05-31T03:01:15;11.60;99.90
10883;DHT22;5494;51.796;10.952;2023-05-31T03:04:00;11.50;99.90
10883;DHT22;5494;51.796;10.952;2023-05-31T03:06:33;11.50;99.90
10883;DHT22;5494;51.796;10.952;2023-05-31T03:09:02;11.50;99.90
10883;DHT22;5494;51.796;10.952;2023-05-31T03:11:33;11.40;99.90
10883;DHT22;5494;51.796;10.952;2023-05-31T03:14:01;11.40;99.90
10883;DHT22;5494;51.796;10.952;2023-05-31T03:16:44;11.40;99.90
10883;DHT22;5494;51.796;10.952;2023-05-31T03:19:13;11.40;99.90
10883;DHT22;5494;51.796;10.952;2023-05-31T03:21:44;11.50;99.90
10883;DHT22;5494;51.796;10.952;2023-05-31T03:24:12;11.50;99.90
10883;DHT22;5494;51.796;10.952;2023-05-31T03:26:41;11.60;99.90
10883;DHT22;5494;51.796;10.952;2023-05-31T03:29:09;11.70;99.90
10883;DHT22;5494;51.796;10.952;2023-05-31T03:31:37;11.80;99.90
10883;DHT22;5494;51.796;10.952;2023-05-31T03:34:05;11.90;99.90
10883;DHT22;5494;51.796;10.952;2023-05-31T03:36:33;12.10;99.90
10883;DHT22;5494;51.796;10.952;2023-05-31T03:39:15;12.20;99.90
10883;DHT22;5494;51.796;10.952;2023-05-31T03:41:44;12.40;99.90
10883;DHT22;5494;51.796;10.952;2023-05-31T03:44:12;12.70;99.90
10883;DHT22;5494;51.796;10.952;2023-05-31T03:46:40;12.80;99.90
10883;DHT22;5494;51.796;10.952;2023-05-31T03:49:08;13.00;99.90
10883;DHT22;5494;51.796;10.952;2023-05-31T03:51:37;13.20;99.90
10883;DHT22;5494;51.796;10.952;2023-05-31T03:54:05;13.40;99.90
10883;DHT22;5494;51.796;10.952;2023-05-31T03:56:35;13.70;99.90
10883;DHT22;5494;51.796;10.952;2023-05-31T03:59:03;13.90;99.90
10883;DHT22;5494;51.796;10.952;2023-05-31T04:01:33;14.20;99.90
10883;DHT22;5494;51.796;10.952;2023-05-31T04:04:01;14.40;99.90
10883;DHT22;5494;51.796;10.952;2023-05-31T04:06:30;14.80;99.90
10883;DHT22;5494;51.796;10.952;2023-05-31T04:08:58;15.20;99.90
10883;DHT22;5494;51.796;10.952;2023-05-31T04:11:26;15.80;99.90
10883;DHT22;5494;51.796;10.952;2023-05-31T04:13:56;16.50;99.90
10883;DHT22;5494;51.796;10.952;2023-05-31T04:16:26;17.10;99.90
10883;DHT22;5494;51.796;10.952;2023-05-31T04:18:55;17.90;99.90
10883;DHT22;5494;51.796;10.952;2023-05-31T04:21:24;18.70;99.90
10883;DHT22;5494;51.796;10.952;2023-05-31T04:23:53;19.30;99.90
10883;DHT22;5494;51.796;10.952;2023-05-31T04:26:22;20.00;99.90
10883;DHT22;5494;51.796;10.952;2023-05-31T04:28:56;20.40;99.90
10883;DHT22;5494;51.796;10.952;2023-05-31T04:31:24;21.00;99.90
10883;DHT22;5494;51.796;10.952;2023-05-31T04:34:08;21.50;99.90
10883;DHT22;5494;51.796;10.952;2023-05-31T04:36:37;22.00;99.90
10883;DHT22;5494;51.796;10.952;2023-05-31T04:39:05;22.40;99.90
10883;DHT22;5494;51.796;10.952;2023-05-31T04:41:39;22.80;99.90
10883;DHT22;5494;51.796;10.952;2023-05-31T04:44:08;23.00;99.90
10883;DHT22;5494;51.796;10.952;2023-05-31T04:46:36;23.10;98.50
10883;DHT22;5494;51.796;10.952;2023-05-31T04:49:07;23.00;99.00
10883;DHT22;5494;51.796;10.952;2023-05-31T04:51:36;22.90;99.00
10883;DHT22;5494;51.796;10.952;2023-05-31T04:54:04;22.90;97.80
10883;DHT22;5494;51.796;10.952;2023-05-31T04:56:33;22.70;97.50
10883;DHT22;5494;51.796;10.952;2023-05-31T04:59:02;22.70;97.60
10883;DHT22;5494;51.796;10.952;2023-05-31T05:01:36;22.80;97.00
10883;DHT22;5494;51.796;10.952;2023-05-31T05:04:11;22.90;97.00
10883;DHT22;5494;51.796;10.952;2023-05-31T05:06:39;23.30;95.80
10883;DHT22;5494;51.796;10.952;2023-05-31T05:09:08;23.60;95.00
10883;DHT22;5494;51.796;10.952;2023-05-31T05:11:37;23.50;94.70
10883;DHT22;5494;51.796;10.952;2023-05-31T05:14:07;23.90;94.10
10883;DHT22;5494;51.796;10.952;2023-05-31T05:16:38;24.40;92.20
10883;DHT22;5494;51.796;10.952;2023-05-31T05:19:06;24.60;91.70
10883;DHT22;5494;51.796;10.952;2023-05-31T05:21:37;25.30;89.20
10883;DHT22;5494;51.796;10.952;2023-05-31T05:24:05;25.90;83.00
10883;DHT22;5494;51.796;10.952;2023-05-31T05:26:33;26.30;80.20
10883;DHT22;5494;51.796;10.952;2023-05-31T05:29:03;27.10;74.50
10883;DHT22;5494;51.796;10.952;2023-05-31T05:31:32;28.20;66.20
10883;DHT22;5494;51.796;10.952;2023-05-31T05:34:04;29.40;58.60
10883;DHT22;5494;51.796;10.952;2023-05-31T05:36:32;29.90;54.00
10883;DHT22;5494;51.796;10.952;2023-05-31T05:39:00;30.40;48.30
10883;DHT22;5494;51.796;10.952;2023-05-31T05:41:33;31.40;42.50
10883;DHT22;5494;51.796;10.952;2023-05-31T05:44:03;32.10;37.30
10883;DHT22;5494;51.796;10.952;2023-05-31T05:46:32;32.50;33.10
10883;DHT22;5494;51.796;10.952;2023-05-31T05:49:01;33.00;31.30
10883;DHT22;5494;51.796;10.952;2023-05-31T05:51:32;32.90;30.60
10883;DHT22;5494;51.796;10.952;2023-05-31T05:54:05;32.70;29.30
10883;DHT22;5494;51.796;10.952;2023-05-31T05:56:35;32.40;28.40
10883;DHT22;5494;51.796;10.952;2023-05-31T05:59:05;31.80;29.00
10883;DHT22;5494;51.796;10.952;2023-05-31T06:01:53;31.70;28.90
10883;DHT22;5494;51.796;10.952;2023-05-31T06:04:23;31.80;28.10
10883;DHT22;5494;51.796;10.952;2023-05-31T06:06:52;32.70;26.90
10883;DHT22;5494;51.796;10.952;2023-05-31T06:09:20;33.50;26.10
10883;DHT22;5494;51.796;10.952;2023-05-31T06:11:49;33.60;26.20
10883;DHT22;5494;51.796;10.952;2023-05-31T06:14:17;32.60;26.90
10883;DHT22;5494;51.796;10.952;2023-05-31T06:16:49;32.50;27.00
10883;DHT22;5494;51.796;10.952;2023-05-31T06:19:18;32.60;26.70
10883;DHT22;5494;51.796;10.952;2023-05-31T06:21:46;32.80;26.60
10883;DHT22;5494;51.796;10.952;2023-05-31T06:24:17;33.20;26.00
10883;DHT22;5494;51.796;10.952;2023-05-31T06:26:46;32.80;25.00
10883;DHT22;5494;51.796;10.952;2023-05-31T06:29:15;32.60;25.70
10883;DHT22;5494;51.796;10.952;2023-05-31T06:31:55;32.60;25.00
10883;DHT22;5494;51.796;10.952;2023-05-31T06:34:26;32.00;25.20
10883;DHT22;5494;51.796;10.952;2023-05-31T06:36:58;31.70;25.90
10883;DHT22;5494;51.796;10.952;2023-05-31T06:39:28;31.80;25.90
10883;DHT22;5494;51.796;10.952;2023-05-31T06:41:57;31.90;26.50
10883;DHT22;5494;51.796;10.952;2023-05-31T06:44:45;32.20;25.80
10883;DHT22;5494;51.796;10.952;2023-05-31T06:47:41;32.10;25.20
10883;DHT22;5494;51.796;10.952;2023-05-31T06:50:22;32.50;26.30
10883;DHT22;5494;51.796;10.952;2023-05-31T06:53:22;33.10;24.20
10883;DHT22;5494;51.796;10.952;2023-05-31T06:55:59;33.60;23.40
10883;DHT22;5494;51.796;10.952;2023-05-31T06:58:29;33.50;23.70
10883;DHT22;5494;51.796;10.952;2023-05-31T07:00:58;32.40;24.30
10883;DHT22;5494;51.796;10.952;2023-05-31T07:03:27;31.30;25.30
10883;DHT22;5494;51.796;10.952;2023-05-31T07:05:57;30.60;26.50
10883;DHT22;5494;51.796;10.952;2023-05-31T07:08:26;29.90;27.50
10883;DHT22;5494;51.796;10.952;2023-05-31T07:11:15;29.70;27.70
10883;DHT22;5494;51.796;10.952;2023-05-31T07:13:43;29.20;27.00
10883;DHT22;5494;51.796;10.952;2023-05-31T07:16:11;28.20;29.10
10883;DHT22;5494;51.796;10.952;2023-05-31T07:18:39;28.00;29.20
10883;DHT22;5494;51.796;10.952;2023-05-31T07:21:07;27.80;29.60
10883;DHT22;5494;51.796;10.952;2023-05-31T07:23:36;27.70;29.30
10883;DHT22;5494;51.796;10.952;2023-05-31T07:26:04;27.50;29.90
10883;DHT22;5494;51.796;10.952;2023-05-31T07:28:33;28.00;29.30
10883;DHT22;5494;51.796;10.952;2023-05-31T07:31:02;28.50;29.60
10883;DHT22;5494;51.796;10.952;2023-05-31T07:33:31;28.80;29.50
10883;DHT22;5494;51.796;10.952;2023-05-31T07:35:59;28.90;29.00
10883;DHT22;5494;51.796;10.952;2023-05-31T07:38:28;29.00;29.70
10883;DHT22;5494;51.796;10.952;2023-05-31T07:40:56;29.40;29.20
10883;DHT22;5494;51.796;10.952;2023-05-31T07:43:25;29.80;29.90
10883;DHT22;5494;51.796;10.952;2023-05-31T07:45:58;29.30;28.70
10883;DHT22;5494;51.796;10.952;2023-05-31T07:48:26;29.00;29.60
10883;DHT22;5494;51.796;10.952;2023-05-31T07:50:55;27.80;30.80
10883;DHT22;5494;51.796;10.952;2023-05-31T07:53:23;26.70;32.40
10883;DHT22;5494;51.796;10.952;2023-05-31T07:55:51;26.80;33.30
10883;DHT22;5494;51.796;10.952;2023-05-31T07:58:19;26.20;35.50
10883;DHT22;5494;51.796;10.952;2023-05-31T08:00:50;25.40;37.70
10883;DHT22;5494;51.796;10.952;2023-05-31T08:03:21;25.70;38.50
10883;DHT22;5494;51.796;10.952;2023-05-31T08:05:49;26.40;37.80
10883;DHT22;5494;51.796;10.952;2023-05-31T08:08:17;27.00;37.10
10883;DHT22;5494;51.796;10.952;2023-05-31T08:10:46;27.20;34.80
10883;DHT22;5494;51.796;10.952;2023-05-31T08:13:17;27.60;32.70
10883;DHT22;5494;51.796;10.952;2023-05-31T08:15:45;27.80;32.50
10883;DHT22;5494;51.796;10.952;2023-05-31T08:18:13;27.70;33.50
10883;DHT22;5494;51.796;10.952;2023-05-31T08:20:43;27.20;33.90
10883;DHT22;5494;51.796;10.952;2023-05-31T08:23:16;26.10;35.30
10883;DHT22;5494;51.796;10.952;2023-05-31T08:25:45;26.00;35.80
10883;DHT22;5494;51.796;10.952;2023-05-31T08:28:13;25.70;37.00
10883;DHT22;5494;51.796;10.952;2023-05-31T08:30:41;25.40;35.80
10883;DHT22;5494;51.796;10.952;2023-05-31T08:33:11;25.80;36.40
10883;DHT22;5494;51.796;10.952;2023-05-31T08:35:39;26.00;35.60
10883;DHT22;5494;51.796;10.952;2023-05-31T08:38:09;25.90;34.60
10883;DHT22;5494;51.796;10.952;2023-05-31T08:40:38;25.40;37.40
10883;DHT22;5494;51.796;10.952;2023-05-31T08:43:08;25.70;36.20
10883;DHT22;5494;51.796;10.952;2023-05-31T08:45:43;25.80;34.50
10883;DHT22;5494;51.796;10.952;2023-05-31T08:48:14;25.70;35.10
10883;DHT22;5494;51.796;10.952;2023-05-31T08:50:50;25.90;36.70
10883;DHT22;5494;51.796;10.952;2023-05-31T08:53:25;26.30;36.10
10883;DHT22;5494;51.796;10.952;2023-05-31T08:55:53;25.90;35.40
10883;DHT22;5494;51.796;10.952;2023-05-31T08:58:22;25.80;36.80
10883;DHT22;5494;51.796;10.952;2023-05-31T09:00:51;25.50;35.00
10883;DHT22;5494;51.796;10.952;2023-05-31T09:03:20;25.30;37.00
10883;DHT22;5494;51.796;10.952;2023-05-31T09:05:54;25.60;35.50
10883;DHT22;5494;51.796;10.952;2023-05-31T09:08:23;25.90;35.30
10883;DHT22;5494;51.796;10.952;2023-05-31T09:10:52;25.90;35.60
10883;DHT22;5494;51.796;10.952;2023-05-31T09:13:20;25.90;36.80
10883;DHT22;5494;51.796;10.952;2023-05-31T09:15:49;26.40;35.10
10883;DHT22;5494;51.796;10.952;2023-05-31T09:18:21;26.20;34.30
10883;DHT22;5494;51.796;10.952;2023-05-31T09:20:52;25.10;35.10
10883;DHT22;5494;51.796;10.952;2023-05-31T09:23:22;24.60;39.20
10883;DHT22;5494;51.796;10.952;2023-05-31T09:25:52;24.70;37.90
10883;DHT22;5494;51.796;10.952;2023-05-31T09:28:21;25.40;38.20
10883;DHT22;5494;51.796;10.952;2023-05-31T09:31:03;26.40;34.60
10883;DHT22;5494;51.796;10.952;2023-05-31T09:33:42;27.00;34.30
10883;DHT22;5494;51.796;10.952;2023-05-31T09:36:23;27.50;33.30
10883;DHT22;5494;51.796;10.952;2023-05-31T09:38:59;27.80;33.50
10883;DHT22;5494;51.796;10.952;2023-05-31T09:41:32;28.10;31.20
10883;DHT22;5494;51.796;10.952;2023-05-31T09:44:01;27.80;31.60
10883;DHT22;5494;51.796;10.952;2023-05-31T09:46:30;27.60;31.00
10883;DHT22;5494;51.796;10.952;2023-05-31T09:48:59;26.00;35.80
10883;DHT22;5494;51.796;10.952;2023-05-31T09:51:28;25.80;34.90
10883;DHT22;5494;51.796;10.952;2023-05-31T09:54:00;25.90;35.40
10883;DHT22;5494;51.796;10.952;2023-05-31T09:56:37;26.50;34.40
10883;DHT22;5494;51.796;10.952;2023-05-31T09:59:08;25.60;34.80
10883;DHT22;5494;51.796;10.952;2023-05-31T10:01:37;24.40;37.20
10883;DHT22;5494;51.796;10.952;2023-05-31T10:04:05;24.50;38.20
10883;DHT22;5494;51.796;10.952;2023-05-31T10:06:34;24.40;37.70
10883;DHT22;5494;51.796;10.952;2023-05-31T10:09:03;24.50;39.10
10883;DHT22;5494;51.796;10.952;2023-05-31T10:11:34;24.70;38.40
10883;DHT22;5494;51.796;10.952;2023-05-31T10:14:09;25.30;39.50
10883;DHT22;5494;51.796;10.952;2023-05-31T10:16:45;25.80;37.60
10883;DHT22;5494;51.796;10.952;2023-05-31T10:19:21;25.70;38.80
10883;DHT22;5494;51.796;10.952;2023-05-31T10:21:52;26.20;40.90
10883;DHT22;5494;51.796;10.952;2023-05-31T10:24:25;26.70;35.00
10883;DHT22;5494;51.796;10.952;2023-05-31T10:27:00;26.60;36.90
10883;DHT22;5494;51.796;10.952;2023-05-31T10:29:41;26.10;38.40
10883;DHT22;5494;51.796;10.952;2023-05-31T10:32:16;25.10;38.80
10883;DHT22;5494;51.796;10.952;2023-05-31T10:34:47;24.90;41.10
10883;DHT22;5494;51.796;10.952;2023-05-31T10:37:17;24.10;43.00
10883;DHT22;5494;51.796;10.952;2023-05-31T10:39:50;23.60;46.10
10883;DHT22;5494;51.796;10.952;2023-05-31T10:42:29;23.80;42.90
10883;DHT22;5494;51.796;10.952;2023-05-31T10:45:11;24.30;44.20
10883;DHT22;5494;51.796;10.952;2023-05-31T10:47:46;24.60;41.30
10883;DHT22;5494;51.796;10.952;2023-05-31T10:50:20;24.70;41.40
10883;DHT22;5494;51.796;10.952;2023-05-31T10:52:48;24.70;39.20
10883;DHT22;5494;51.796;10.952;2023-05-31T10:55:18;24.50;41.60
10883;DHT22;5494;51.796;10.952;2023-05-31T10:57:53;24.40;39.80
10883;DHT22;5494;51.796;10.952;2023-05-31T11:00:23;23.50;42.50
10883;DHT22;5494;51.796;10.952;2023-05-31T11:02:53;23.20;43.50
10883;DHT22;5494;51.796;10.952;2023-05-31T11:05:26;23.50;44.60
10883;DHT22;5494;51.796;10.952;2023-05-31T11:07:54;23.70;43.50
10883;DHT22;5494;51.796;10.952;2023-05-31T11:10:27;23.20;44.80
10883;DHT22;5494;51.796;10.952;2023-05-31T11:12:57;23.00;43.70
10883;DHT22;5494;51.796;10.952;2023-05-31T11:15:40;23.10;47.80
10883;DHT22;5494;51.796;10.952;2023-05-31T11:18:13;23.40;45.30
10883;DHT22;5494;51.796;10.952;2023-05-31T11:20:42;23.60;43.40
10883;DHT22;5494;51.796;10.952;2023-05-31T11:23:24;23.30;44.70
10883;DHT22;5494;51.796;10.952;2023-05-31T11:26:15;23.40;44.20
10883;DHT22;5494;51.796;10.952;2023-05-31T11:28:54;23.70;42.50
10883;DHT22;5494;51.796;10.952;2023-05-31T11:31:56;23.60;42.00
10883;DHT22;5494;51.796;10.952;2023-05-31T11:34:27;23.40;43.20
10883;DHT22;5494;51.796;10.952;2023-05-31T11:36:58;22.90;43.70
10883;DHT22;5494;51.796;10.952;2023-05-31T11:39:27;22.70;44.60
10883;DHT22;5494;51.796;10.952;2023-05-31T11:41:55;22.70;46.80
10883;DHT22;5494;51.796;10.952;2023-05-31T11:44:27;22.70;47.60
10883;DHT22;5494;51.796;10.952;2023-05-31T11:47:04;22.90;48.40
10883;DHT22;5494;51.796;10.952;2023-05-31T11:49:33;23.30;48.00
10883;DHT22;5494;51.796;10.952;2023-05-31T11:52:02;23.60;44.10
10883;DHT22;5494;51.796;10.952;2023-05-31T11:54:32;23.40;44.40
10883;DHT22;5494;51.796;10.952;2023-05-31T11:57:03;23.50;46.70
10883;DHT22;5494;51.796;10.952;2023-05-31T11:59:34;23.60;46.90
10883;DHT22;5494;51.796;10.952;2023-05-31T12:02:07;23.80;45.30
10883;DHT22;5494;51.796;10.952;2023-05-31T12:04:37;23.70;47.10
10883;DHT22;5494;51.796;10.952;2023-05-31T12:07:10;23.70;45.80
10883;DHT22;5494;51.796;10.952;2023-05-31T12:09:39;23.70;46.60
10883;DHT22;5494;51.796;10.952;2023-05-31T12:12:07;23.80;46.30
10883;DHT22;5494;51.796;10.952;2023-05-31T12:14:36;24.00;44.70
10883;DHT22;5494;51.796;10.952;2023-05-31T12:17:06;23.80;44.50
10883;DHT22;5494;51.796;10.952;2023-05-31T12:19:36;23.80;44.40
10883;DHT22;5494;51.796;10.952;2023-05-31T12:22:05;24.00;43.60
10883;DHT22;5494;51.796;10.952;2023-05-31T12:24:33;24.00;43.70
10883;DHT22;5494;51.796;10.952;2023-05-31T12:27:05;23.60;45.20
10883;DHT22;5494;51.796;10.952;2023-05-31T12:29:33;23.20;45.50
10883;DHT22;5494;51.796;10.952;2023-05-31T12:32:03;23.10;47.10
10883;DHT22;5494;51.796;10.952;2023-05-31T12:34:35;23.10;46.40
10883;DHT22;5494;51.796;10.952;2023-05-31T12:37:05;23.20;47.10
10883;DHT22;5494;51.796;10.952;2023-05-31T12:39:34;23.10;48.20
10883;DHT22;5494;51.796;10.952;2023-05-31T12:42:04;23.20;47.70
10883;DHT22;5494;51.796;10.952;2023-05-31T12:44:34;23.40;46.80
10883;DHT22;5494;51.796;10.952;2023-05-31T12:47:08;23.60;46.80
10883;DHT22;5494;51.796;10.952;2023-05-31T12:49:36;23.50;47.60
10883;DHT22;5494;51.796;10.952;2023-05-31T12:52:05;23.70;46.10
10883;DHT22;5494;51.796;10.952;2023-05-31T12:54:36;23.90;46.00
10883;DHT22;5494;51.796;10.952;2023-05-31T12:57:06;23.90;46.20
10883;DHT22;5494;51.796;10.952;2023-05-31T12:59:36;23.40;44.80
10883;DHT22;5494;51.796;10.952;2023-05-31T13:02:05;23.10;46.40
10883;DHT22;5494;51.796;10.952;2023-05-31T13:04:35;22.90;49.90
10883;DHT22;5494;51.796;10.952;2023-05-31T13:07:03;22.70;51.20
10883;DHT22;5494;51.796;10.952;2023-05-31T13:09:32;22.80;51.40
10883;DHT22;5494;51.796;10.952;2023-05-31T13:12:00;22.90;50.60
10883;DHT22;5494;51.796;10.952;2023-05-31T13:14:28;22.90;49.00
10883;DHT22;5494;51.796;10.952;2023-05-31T13:16:56;23.00;48.90
10883;DHT22;5494;51.796;10.952;2023-05-31T13:19:25;23.20;46.90
10883;DHT22;5494;51.796;10.952;2023-05-31T13:21:54;23.10;46.90
10883;DHT22;5494;51.796;10.952;2023-05-31T13:24:22;22.90;46.90
10883;DHT22;5494;51.796;10.952;2023-05-31T13:26:50;22.90;47.20
10883;DHT22;5494;51.796;10.952;2023-05-31T13:29:18;22.80;46.60
10883;DHT22;5494;51.796;10.952;2023-05-31T13:31:48;22.90;46.80
10883;DHT22;5494;51.796;10.952;2023-05-31T13:34:17;23.00;48.40
10883;DHT22;5494;51.796;10.952;2023-05-31T13:36:45;23.20;44.20
10883;DHT22;5494;51.796;10.952;2023-05-31T13:39:15;23.30;45.00
10883;DHT22;5494;51.796;10.952;2023-05-31T13:41:44;23.30;43.40
10883;DHT22;5494;51.796;10.952;2023-05-31T13:44:12;23.20;43.30
10883;DHT22;5494;51.796;10.952;2023-05-31T13:46:42;23.00;44.60
10883;DHT22;5494;51.796;10.952;2023-05-31T13:49:10;23.00;46.10
10883;DHT22;5494;51.796;10.952;2023-05-31T13:51:42;23.00;48.30
10883;DHT22;5494;51.796;10.952;2023-05-31T13:54:10;23.10;48.90
10883;DHT22;5494;51.796;10.952;2023-05-31T13:56:40;23.30;51.10
10883;DHT22;5494;51.796;10.952;2023-05-31T13:59:08;23.20;51.10
10883;DHT22;5494;51.796;10.952;2023-05-31T14:01:36;23.30;50.60
10883;DHT22;5494;51.796;10.952;2023-05-31T14:04:06;23.60;50.60
10883;DHT22;5494;51.796;10.952;2023-05-31T14:06:34;23.50;48.70
10883;DHT22;5494;51.796;10.952;2023-05-31T14:09:02;23.30;50.00
10883;DHT22;5494;51.796;10.952;2023-05-31T14:11:30;23.30;48.90
10883;DHT22;5494;51.796;10.952;2023-05-31T14:13:59;23.20;49.20
10883;DHT22;5494;51.796;10.952;2023-05-31T14:16:27;23.10;48.80
10883;DHT22;5494;51.796;10.952;2023-05-31T14:18:56;23.20;44.90
10883;DHT22;5494;51.796;10.952;2023-05-31T14:21:24;23.10;45.70
10883;DHT22;5494;51.796;10.952;2023-05-31T14:23:53;23.30;44.80
10883;DHT22;5494;51.796;10.952;2023-05-31T14:26:21;23.40;44.00
10883;DHT22;5494;51.796;10.952;2023-05-31T14:28:48;23.60;44.60
10883;DHT22;5494;51.796;10.952;2023-05-31T14:31:18;23.40;43.30
10883;DHT22;5494;51.796;10.952;2023-05-31T14:33:46;23.20;42.60
10883;DHT22;5494;51.796;10.952;2023-05-31T14:36:14;23.20;43.40
10883;DHT22;5494;51.796;10.952;2023-05-31T14:38:43;23.30;42.30
10883;DHT22;5494;51.796;10.952;2023-05-31T14:41:11;23.40;41.90
10883;DHT22;5494;51.796;10.952;2023-05-31T14:43:40;23.50;39.60
10883;DHT22;5494;51.796;10.952;2023-05-31T14:46:08;23.70;42.40
10883;DHT22;5494;51.796;10.952;2023-05-31T14:48:37;23.90;42.80
10883;DHT22;5494;51.796;10.952;2023-05-31T14:51:05;23.90;44.10
10883;DHT22;5494;51.796;10.952;2023-05-31T14:53:33;23.80;45.00
10883;DHT22;5494;51.796;10.952;2023-05-31T14:56:01;24.00;44.20
10883;DHT22;5494;51.796;10.952;2023-05-31T14:58:32;23.90;43.30
10883;DHT22;5494;51.796;10.952;2023-05-31T15:01:00;23.80;45.50
10883;DHT22;5494;51.796;10.952;2023-05-31T15:03:29;23.80;45.80
10883;DHT22;5494;51.796;10.952;2023-05-31T15:05:58;23.70;48.90
10883;DHT22;5494;51.796;10.952;2023-05-31T15:08:26;23.90;50.30
10883;DHT22;5494;51.796;10.952;2023-05-31T15:10:58;23.80;50.80
10883;DHT22;5494;51.796;10.952;2023-05-31T15:13:26;24.00;50.40
10883;DHT22;5494;51.796;10.952;2023-05-31T15:15:54;24.10;49.50
10883;DHT22;5494;51.796;10.952;2023-05-31T15:18:22;24.30;48.50
10883;DHT22;5494;51.796;10.952;2023-05-31T15:20:51;24.20;46.80
10883;DHT22;5494;51.796;10.952;2023-05-31T15:23:20;24.00;45.40
10883;DHT22;5494;51.796;10.952;2023-05-31T15:25:48;23.70;45.00
10883;DHT22;5494;51.796;10.952;2023-05-31T15:28:16;23.70;45.00
10883;DHT22;5494;51.796;10.952;2023-05-31T15:30:44;23.60;45.80
10883;DHT22;5494;51.796;10.952;2023-05-31T15:33:12;23.50;46.30
10883;DHT22;5494;51.796;10.952;2023-05-31T15:35:41;23.50;45.30
10883;DHT22;5494;51.796;10.952;2023-05-31T15:38:09;23.60;45.30
10883;DHT22;5494;51.796;10.952;2023-05-31T15:40:38;23.70;47.30
10883;DHT22;5494;51.796;10.952;2023-05-31T15:43:06;23.70;44.80
10883;DHT22;5494;51.796;10.952;2023-05-31T15:45:34;23.70;44.50
10883;DHT22;5494;51.796;10.952;2023-05-31T15:48:02;23.60;43.80
10883;DHT22;5494;51.796;10.952;2023-05-31T15:50:30;23.40;44.40
10883;DHT22;5494;51.796;10.952;2023-05-31T15:52:59;23.20;45.90